createdAt,value
2018-01-21T00:01:24.837Z,2.60
2018-01-21T00:03:52.293Z,2.60
2018-01-21T00:06:19.772Z,2.60
2018-01-21T00:08:47.240Z,2.70
2018-01-21T00:11:14.674Z,2.70
2018-01-21T00:13:42.164Z,2.70
2018-01-21T00:16:09.606Z,2.70
2018-01-21T00:18:37.045Z,2.70
2018-01-21T00:21:04.526Z,2.60
2018-01-21T00:23:32.081Z,2.70
2018-01-21T00:25:59.510Z,2.70
2018-01-21T00:28:26.933Z,2.60
2018-01-21T00:30:55.364Z,2.70
2018-01-21T00:33:22.802Z,2.60
2018-01-21T00:35:50.230Z,2.70
2018-01-21T00:38:17.666Z,2.70
2018-01-21T00:40:45.104Z,2.70
2018-01-21T00:43:12.533Z,2.60
2018-01-21T00:45:40.120Z,2.60
2018-01-21T00:48:07.754Z,2.60
2018-01-21T00:50:35.249Z,2.60
2018-01-21T00:53:02.706Z,2.60
2018-01-21T00:55:30.129Z,2.60
2018-01-21T00:57:57.581Z,2.70
2018-01-21T01:00:25.176Z,2.40
2018-01-21T01:02:52.592Z,2.70
2018-01-21T01:05:20.029Z,2.60
2018-01-21T01:07:47.554Z,2.60
2018-01-21T01:10:14.981Z,2.60
2018-01-21T01:12:42.466Z,2.60
2018-01-21T01:15:10.222Z,2.60
2018-01-21T01:17:37.687Z,2.50
2018-01-21T01:20:05.151Z,2.60
2018-01-21T01:22:32.904Z,2.50
2018-01-21T01:25:00.554Z,2.40
2018-01-21T01:27:28.028Z,2.50
2018-01-21T01:29:55.585Z,2.50
2018-01-21T01:32:28.920Z,2.50
2018-01-21T01:34:56.360Z,2.50
2018-01-21T01:37:23.982Z,2.60
2018-01-21T01:39:51.501Z,2.60
2018-01-21T01:42:18.937Z,2.50
2018-01-21T01:44:46.394Z,2.50
2018-01-21T01:47:13.936Z,2.50
2018-01-21T01:49:41.365Z,2.50
2018-01-21T01:52:08.790Z,2.50
2018-01-21T01:54:36.318Z,2.50
2018-01-21T01:57:04.030Z,2.50
2018-01-21T01:59:31.528Z,2.50
2018-01-21T02:01:58.966Z,2.50
2018-01-21T02:04:26.392Z,2.50
2018-01-21T02:06:53.904Z,2.50
2018-01-21T02:09:21.369Z,2.50
2018-01-21T02:11:49.132Z,2.40
2018-01-21T02:14:16.556Z,2.40
2018-01-21T02:16:43.984Z,2.40
2018-01-21T02:19:11.412Z,2.40
2018-01-21T02:21:38.964Z,2.40
2018-01-21T02:24:06.409Z,2.40
2018-01-21T02:26:33.839Z,2.40
2018-01-21T02:29:01.264Z,2.40
2018-01-21T02:31:28.685Z,2.40
2018-01-21T02:33:56.257Z,2.30
2018-01-21T02:36:23.713Z,2.30
2018-01-21T02:38:57.766Z,2.20
2018-01-21T02:41:25.961Z,2.30
2018-01-21T02:43:53.464Z,2.20
2018-01-21T02:46:20.911Z,2.20
2018-01-21T02:48:48.374Z,2.20
2018-01-21T02:51:15.829Z,2.20
2018-01-21T02:53:43.257Z,2.10
2018-01-21T02:56:10.693Z,2.10
2018-01-21T02:58:39.030Z,2.10
2018-01-21T03:01:06.586Z,2.10
2018-01-21T03:03:34.050Z,2.10
2018-01-21T03:06:01.811Z,2.00
2018-01-21T03:08:29.241Z,2.00
2018-01-21T03:10:56.681Z,2.00
2018-01-21T03:13:24.104Z,2.00
2018-01-21T03:15:51.640Z,1.90
2018-01-21T03:18:19.070Z,2.00
2018-01-21T03:20:46.501Z,1.90
2018-01-21T03:23:13.930Z,1.90
2018-01-21T03:25:41.357Z,1.90
2018-01-21T03:28:08.834Z,2.00
2018-01-21T03:30:36.291Z,1.90
2018-01-21T03:33:03.711Z,2.00
2018-01-21T03:35:31.141Z,1.90
2018-01-21T03:37:59.337Z,1.90
2018-01-21T03:40:26.770Z,1.90
2018-01-21T03:42:54.205Z,1.90
2018-01-21T03:45:21.653Z,1.80
2018-01-21T03:47:49.084Z,1.70
2018-01-21T03:50:16.666Z,1.70
2018-01-21T03:52:44.297Z,2.00
2018-01-21T03:55:11.785Z,1.60
2018-01-21T03:57:39.346Z,1.60
2018-01-21T04:00:07.114Z,1.60
2018-01-21T04:02:34.569Z,1.40
2018-01-21T04:05:01.998Z,1.40
2018-01-21T04:07:29.441Z,1.60
2018-01-21T04:09:56.944Z,1.40
2018-01-21T04:12:25.234Z,1.50
2018-01-21T04:14:52.685Z,1.50
2018-01-21T04:17:20.157Z,1.30
2018-01-21T04:19:47.598Z,1.40
2018-01-21T04:22:15.150Z,1.40
2018-01-21T04:24:42.612Z,1.40
2018-01-21T04:27:10.254Z,1.30
2018-01-21T04:29:37.732Z,1.30
2018-01-21T04:32:05.193Z,1.20
2018-01-21T04:34:32.650Z,1.20
2018-01-21T04:37:00.211Z,1.10
2018-01-21T04:39:27.646Z,1.10
2018-01-21T04:41:55.122Z,1.10
2018-01-21T04:44:22.585Z,1.10
2018-01-21T04:46:50.209Z,1.00
2018-01-21T04:49:17.707Z,0.90
2018-01-21T04:51:45.139Z,1.00
2018-01-21T04:54:12.622Z,0.90
2018-01-21T04:56:40.060Z,0.80
2018-01-21T04:59:07.481Z,0.80
2018-01-21T05:01:35.677Z,0.60
2018-01-21T05:04:03.101Z,0.60
2018-01-21T05:06:30.618Z,0.60
2018-01-21T05:08:58.322Z,0.70
2018-01-21T05:11:25.843Z,0.90
2018-01-21T05:13:53.481Z,0.90
2018-01-21T05:16:21.050Z,1.00
2018-01-21T05:18:48.480Z,1.00
2018-01-21T05:21:15.906Z,0.90
2018-01-21T05:23:43.342Z,0.90
2018-01-21T05:26:10.793Z,1.00
2018-01-21T05:28:38.239Z,0.90
2018-01-21T05:31:05.819Z,1.00
2018-01-21T05:33:33.581Z,0.90
2018-01-21T05:36:01.048Z,0.90
2018-01-21T05:38:28.808Z,1.00
2018-01-21T05:40:56.439Z,1.00
2018-01-21T05:43:24.031Z,1.00
2018-01-21T05:45:51.464Z,1.00
2018-01-21T05:48:18.902Z,1.00
2018-01-21T05:50:46.333Z,1.00
2018-01-21T05:53:13.773Z,1.10
2018-01-21T05:55:41.206Z,1.00
2018-01-21T05:58:08.773Z,1.10
2018-01-21T06:00:36.196Z,1.10
2018-01-21T06:03:03.625Z,1.20
2018-01-21T06:05:31.145Z,1.20
2018-01-21T06:07:58.577Z,1.30
2018-01-21T06:10:26.002Z,1.30
2018-01-21T06:12:53.525Z,1.30
2018-01-21T06:15:21.154Z,1.40
2018-01-21T06:17:48.581Z,1.40
2018-01-21T06:20:16.058Z,1.50
2018-01-21T06:22:43.671Z,1.40
2018-01-21T06:25:11.099Z,1.50
2018-01-21T06:27:38.523Z,1.50
2018-01-21T06:30:06.035Z,1.50
2018-01-21T06:32:33.666Z,1.60
2018-01-21T06:35:01.253Z,1.50
2018-01-21T06:37:28.686Z,1.50
2018-01-21T06:39:56.112Z,1.50
2018-01-21T06:42:23.538Z,1.50
2018-01-21T06:44:51.093Z,1.60
2018-01-21T06:47:18.518Z,1.60
2018-01-21T06:49:45.954Z,1.60
2018-01-21T06:52:13.390Z,1.60
2018-01-21T06:54:40.917Z,1.60
2018-01-21T06:57:08.549Z,1.60
2018-01-21T06:59:36.142Z,1.60
2018-01-21T07:02:03.774Z,1.60
2018-01-21T07:04:31.309Z,1.60
2018-01-21T07:06:59.641Z,1.50
2018-01-21T07:09:27.119Z,1.50
2018-01-21T07:11:54.540Z,1.50
2018-01-21T07:14:22.031Z,1.70
2018-01-21T07:16:49.573Z,1.60
2018-01-21T07:19:17.218Z,1.60
2018-01-21T07:21:44.669Z,1.60
2018-01-21T07:24:12.253Z,1.70
2018-01-21T07:26:39.685Z,1.80
2018-01-21T07:29:07.214Z,1.80
2018-01-21T07:31:34.923Z,1.60
2018-01-21T07:34:02.393Z,1.60
2018-01-21T07:36:29.849Z,1.70
2018-01-21T07:38:57.381Z,1.60
2018-01-21T07:41:25.074Z,1.70
2018-01-21T07:43:52.842Z,1.70
2018-01-21T07:46:20.469Z,1.70
2018-01-21T07:48:47.927Z,1.70
2018-01-21T07:51:15.417Z,1.80
2018-01-21T07:53:42.842Z,1.90
2018-01-21T07:56:10.319Z,1.70
2018-01-21T07:58:37.892Z,1.70
2018-01-21T08:01:05.353Z,1.70
2018-01-21T08:03:32.874Z,1.80
2018-01-21T08:06:00.578Z,1.80
2018-01-21T08:08:28.012Z,1.80
2018-01-21T08:10:55.434Z,1.80
2018-01-21T08:13:23.874Z,1.90
2018-01-21T08:15:51.635Z,1.80
2018-01-21T08:18:19.095Z,1.90
2018-01-21T08:20:47.295Z,1.80
2018-01-21T08:23:14.925Z,1.90
2018-01-21T08:25:42.370Z,1.90
2018-01-21T08:28:09.829Z,1.90
2018-01-21T08:30:37.308Z,2.00
2018-01-21T08:33:04.929Z,2.10
2018-01-21T08:35:38.087Z,2.10
2018-01-21T08:38:11.301Z,2.20
2018-01-21T08:40:44.441Z,2.10
2018-01-21T08:43:11.973Z,2.00
2018-01-21T08:45:39.557Z,2.00
2018-01-21T08:48:07.186Z,2.00
2018-01-21T08:50:34.712Z,2.00
2018-01-21T08:53:02.139Z,2.00
2018-01-21T08:55:29.703Z,2.10
2018-01-21T08:57:57.158Z,2.20
2018-01-21T09:00:24.573Z,2.30
2018-01-21T09:02:52.074Z,2.50
2018-01-21T09:05:19.529Z,2.40
2018-01-21T09:07:46.953Z,2.40
2018-01-21T09:10:14.373Z,2.30
2018-01-21T09:12:41.903Z,2.40
2018-01-21T09:15:09.326Z,2.40
2018-01-21T09:17:36.749Z,2.50
2018-01-21T09:20:04.175Z,2.40
2018-01-21T09:22:31.628Z,2.50
2018-01-21T09:24:59.090Z,2.60
2018-01-21T09:27:26.513Z,2.80
2018-01-21T09:29:54.033Z,3.00
2018-01-21T09:32:21.466Z,2.90
2018-01-21T09:34:48.926Z,2.80
2018-01-21T09:37:16.345Z,2.70
2018-01-21T09:39:43.946Z,2.70
2018-01-21T09:42:11.586Z,3.00
2018-01-21T09:44:39.066Z,3.20
2018-01-21T09:47:06.534Z,3.40
2018-01-21T09:49:34.083Z,3.30
2018-01-21T09:52:01.519Z,3.40
2018-01-21T09:54:28.937Z,3.20
2018-01-21T09:56:56.373Z,3.20
2018-01-21T09:59:23.797Z,3.30
2018-01-21T10:01:51.286Z,3.40
2018-01-21T10:04:18.829Z,3.40
2018-01-21T10:06:46.589Z,3.40
2018-01-21T10:09:14.214Z,3.40
2018-01-21T10:11:42.430Z,3.60
2018-01-21T10:14:09.889Z,3.50
2018-01-21T10:16:37.537Z,3.50
2018-01-21T10:19:04.978Z,3.40
2018-01-21T10:21:32.497Z,3.50
2018-01-21T10:24:00.027Z,3.60
2018-01-21T10:26:27.486Z,3.60
2018-01-21T10:28:55.119Z,3.70
2018-01-21T10:31:22.638Z,3.80
2018-01-21T10:33:50.061Z,3.90
2018-01-21T10:36:17.816Z,3.80
2018-01-21T10:38:45.562Z,4.00
2018-01-21T10:41:13.195Z,4.20
2018-01-21T10:43:40.633Z,4.10
2018-01-21T10:46:08.369Z,4.20
2018-01-21T10:48:36.007Z,4.40
2018-01-21T10:51:03.502Z,4.60
2018-01-21T10:53:31.058Z,4.50
2018-01-21T10:55:58.700Z,4.60
2018-01-21T10:58:26.183Z,4.70
2018-01-21T11:00:59.249Z,4.90
2018-01-21T11:03:26.677Z,4.90
2018-01-21T11:05:54.187Z,4.60
2018-01-21T11:08:21.826Z,4.70
2018-01-21T11:10:49.308Z,4.80
2018-01-21T11:13:16.837Z,4.80
2018-01-21T11:15:44.262Z,4.90
2018-01-21T11:18:11.782Z,4.90
2018-01-21T11:20:39.737Z,5.00
2018-01-21T11:23:07.226Z,5.00
2018-01-21T11:25:34.766Z,5.10
2018-01-21T11:28:02.405Z,4.90
2018-01-21T11:30:29.889Z,4.80
2018-01-21T11:32:57.332Z,5.00
2018-01-21T11:35:24.777Z,5.00
2018-01-21T11:37:52.234Z,5.10
2018-01-21T11:40:19.746Z,5.00
2018-01-21T11:42:47.183Z,4.90
2018-01-21T11:45:14.612Z,4.90
2018-01-21T11:47:42.198Z,4.70
2018-01-21T11:50:09.654Z,4.40
2018-01-21T11:52:37.114Z,4.50
2018-01-21T11:55:04.878Z,4.50
2018-01-21T11:57:32.645Z,4.50
2018-01-21T12:00:00.081Z,4.80
2018-01-21T12:02:27.502Z,5.00
2018-01-21T12:04:55.017Z,5.00
2018-01-21T12:07:22.649Z,5.00
2018-01-21T12:09:50.121Z,4.90
2018-01-21T12:12:17.705Z,4.80
2018-01-21T12:14:45.158Z,4.70
2018-01-21T12:17:12.581Z,4.90
2018-01-21T12:19:40.007Z,5.10
2018-01-21T12:22:07.530Z,5.40
2018-01-21T12:24:34.953Z,5.60
2018-01-21T12:27:02.446Z,5.80
2018-01-21T12:29:30.087Z,5.80
2018-01-21T12:31:57.666Z,5.80
2018-01-21T12:34:25.126Z,5.80
2018-01-21T12:36:52.689Z,5.70
2018-01-21T12:39:20.263Z,5.70
2018-01-21T12:41:47.705Z,5.60
2018-01-21T12:44:15.258Z,5.80
2018-01-21T12:46:42.721Z,5.80
2018-01-21T12:49:10.152Z,5.90
2018-01-21T12:51:37.581Z,5.90
2018-01-21T12:54:05.097Z,6.00
2018-01-21T12:56:32.553Z,6.10
2018-01-21T12:59:00.325Z,6.10
2018-01-21T13:01:28.086Z,6.20
2018-01-21T13:03:55.733Z,6.10
2018-01-21T13:06:23.205Z,6.00
2018-01-21T13:08:50.666Z,5.90
2018-01-21T13:11:18.193Z,5.90
2018-01-21T13:13:45.617Z,6.00
2018-01-21T13:16:13.151Z,6.00
2018-01-21T13:18:40.556Z,6.10
2018-01-21T13:21:07.975Z,5.90
2018-01-21T13:23:35.511Z,5.90
2018-01-21T13:26:03.142Z,5.90
2018-01-21T13:28:30.638Z,6.00
2018-01-21T13:30:58.160Z,6.00
2018-01-21T13:33:25.646Z,5.90
2018-01-21T13:35:53.414Z,5.90
2018-01-21T13:38:20.838Z,5.90
2018-01-21T13:40:48.263Z,6.00
2018-01-21T13:43:15.789Z,6.00
2018-01-21T13:45:43.417Z,6.00
2018-01-21T13:48:11.017Z,5.90
2018-01-21T13:50:38.661Z,5.80
2018-01-21T13:53:06.137Z,5.70
2018-01-21T13:55:33.572Z,5.70
2018-01-21T13:58:01.023Z,5.60
2018-01-21T14:00:28.606Z,5.60
2018-01-21T14:02:56.021Z,5.60
2018-01-21T14:05:23.457Z,5.60
2018-01-21T14:07:50.982Z,5.60
2018-01-21T14:10:18.434Z,5.60
2018-01-21T14:12:45.861Z,5.60
2018-01-21T14:15:13.298Z,5.50
2018-01-21T14:17:40.829Z,5.60
2018-01-21T14:20:08.275Z,5.70
2018-01-21T14:22:35.704Z,5.70
2018-01-21T14:25:03.145Z,5.80
2018-01-21T14:27:31.569Z,5.70
2018-01-21T14:29:58.993Z,5.70
2018-01-21T14:32:26.426Z,5.60
2018-01-21T14:34:53.837Z,5.60
2018-01-21T14:37:21.394Z,5.60
2018-01-21T14:39:48.817Z,5.50
2018-01-21T14:42:16.248Z,5.50
2018-01-21T14:44:43.674Z,5.50
2018-01-21T14:47:11.224Z,5.40
2018-01-21T14:49:38.645Z,5.40
2018-01-21T14:52:06.081Z,5.50
2018-01-21T14:54:33.494Z,5.50
2018-01-21T14:57:01.060Z,5.50
2018-01-21T14:59:28.828Z,5.40
2018-01-21T15:01:56.458Z,5.40
2018-01-21T15:04:23.950Z,5.30
2018-01-21T15:06:51.375Z,5.20
2018-01-21T15:09:18.961Z,5.20
2018-01-21T15:11:46.730Z,5.20
2018-01-21T15:14:14.189Z,5.10
2018-01-21T15:16:41.953Z,5.00
2018-01-21T15:19:09.721Z,5.00
2018-01-21T15:21:37.154Z,5.00
2018-01-21T15:24:04.641Z,5.00
2018-01-21T15:26:32.089Z,4.80
2018-01-21T15:28:59.495Z,4.70
2018-01-21T15:31:27.005Z,4.70
2018-01-21T15:33:54.422Z,4.70
2018-01-21T15:36:21.851Z,4.70
2018-01-21T15:38:49.273Z,4.70
2018-01-21T15:41:16.754Z,4.70
2018-01-21T15:43:44.197Z,4.70
2018-01-21T15:46:11.757Z,4.70
2018-01-21T15:48:39.214Z,4.70
2018-01-21T15:51:06.656Z,4.60
2018-01-21T15:53:34.078Z,4.50
2018-01-21T15:56:01.585Z,4.40
2018-01-21T15:58:29.014Z,4.40
2018-01-21T16:00:56.427Z,4.40
2018-01-21T16:03:23.855Z,4.30
2018-01-21T16:05:51.414Z,4.50
2018-01-21T16:08:18.833Z,4.30
2018-01-21T16:10:46.335Z,4.20
2018-01-21T16:13:14.101Z,4.20
2018-01-21T16:15:41.529Z,4.20
2018-01-21T16:18:09.018Z,4.10
2018-01-21T16:20:36.544Z,4.10
2018-01-21T16:23:04.242Z,4.00
2018-01-21T16:25:32.006Z,4.00
2018-01-21T16:27:59.701Z,3.90
2018-01-21T16:30:27.221Z,3.90
2018-01-21T16:32:54.876Z,3.80
2018-01-21T16:35:22.309Z,3.70
2018-01-21T16:38:01.464Z,3.50
2018-01-21T16:40:28.972Z,3.40
2018-01-21T16:42:56.399Z,3.20
2018-01-21T16:45:23.953Z,3.30
2018-01-21T16:47:51.719Z,3.30
2018-01-21T16:50:19.354Z,3.30
2018-01-21T16:52:46.823Z,3.20
2018-01-21T16:55:14.406Z,3.20
2018-01-21T16:57:42.166Z,3.20
2018-01-21T17:00:09.626Z,3.20
2018-01-21T17:02:37.271Z,3.10
2018-01-21T17:05:04.754Z,3.10
2018-01-21T17:07:32.305Z,3.20
2018-01-21T17:09:59.765Z,3.30
2018-01-21T17:12:27.205Z,3.30
2018-01-21T17:14:54.633Z,3.20
2018-01-21T17:17:22.137Z,3.20
2018-01-21T17:19:49.599Z,3.10
2018-01-21T17:22:17.250Z,3.10
2018-01-21T17:24:44.718Z,3.10
2018-01-21T17:27:12.250Z,3.00
2018-01-21T17:29:39.734Z,3.00
2018-01-21T17:32:07.193Z,2.90
2018-01-21T17:34:34.626Z,2.90
2018-01-21T17:37:02.046Z,2.90
2018-01-21T17:39:29.474Z,2.90
2018-01-21T17:41:56.930Z,2.90
2018-01-21T17:44:24.482Z,2.80
2018-01-21T17:46:52.113Z,2.80
2018-01-21T17:49:19.705Z,2.80
2018-01-21T17:51:47.333Z,2.70
2018-01-21T17:54:14.882Z,2.70
2018-01-21T17:56:42.388Z,2.60
2018-01-21T17:59:09.845Z,2.50
2018-01-21T18:01:37.273Z,2.40
2018-01-21T18:04:04.763Z,2.40
2018-01-21T18:06:32.186Z,2.40
2018-01-21T18:08:59.610Z,2.30
2018-01-21T18:11:27.133Z,2.20
2018-01-21T18:13:54.596Z,2.10
2018-01-21T18:16:22.354Z,2.00
2018-01-21T18:18:50.003Z,1.90
2018-01-21T18:21:17.584Z,2.00
2018-01-21T18:23:45.126Z,2.00
2018-01-21T18:26:12.555Z,2.00
2018-01-21T18:28:40.262Z,2.00
2018-01-21T18:31:07.738Z,2.00
2018-01-21T18:33:35.129Z,2.00
2018-01-21T18:36:02.568Z,2.00
2018-01-21T18:38:30.094Z,2.00
2018-01-21T18:40:57.726Z,2.00
2018-01-21T18:43:25.314Z,2.10
2018-01-21T18:45:52.961Z,2.10
2018-01-21T18:48:20.546Z,2.10
2018-01-21T18:50:48.164Z,2.00
2018-01-21T18:53:15.663Z,2.10
2018-01-21T18:55:43.218Z,2.10
2018-01-21T18:58:10.860Z,2.10
2018-01-21T19:00:38.437Z,2.10
2018-01-21T19:03:06.077Z,2.10
2018-01-21T19:05:33.662Z,2.10
2018-01-21T19:08:01.089Z,2.10
2018-01-21T19:10:28.523Z,2.10
2018-01-21T19:12:56.034Z,2.20
2018-01-21T19:15:23.569Z,2.20
2018-01-21T19:17:50.989Z,2.20
2018-01-21T19:20:18.770Z,2.20
2018-01-21T19:22:46.486Z,2.20
2018-01-21T19:25:13.946Z,2.20
2018-01-21T19:27:41.702Z,2.20
2018-01-21T19:30:09.338Z,2.20
2018-01-21T19:32:36.929Z,2.20
2018-01-21T19:35:04.698Z,2.20
2018-01-21T19:37:32.154Z,2.20
2018-01-21T19:40:00.793Z,2.30
2018-01-21T19:42:30.669Z,2.30
2018-01-21T19:44:58.114Z,2.30
2018-01-21T19:47:25.626Z,2.40
2018-01-21T19:49:53.126Z,2.30
2018-01-21T19:52:20.588Z,2.30
2018-01-21T19:54:48.229Z,2.30
2018-01-21T19:57:15.651Z,2.30
2018-01-21T19:59:43.886Z,2.30
2018-01-21T20:02:11.314Z,2.30
2018-01-21T20:04:38.802Z,2.40
2018-01-21T20:07:06.244Z,2.40
2018-01-21T20:09:33.682Z,2.30
2018-01-21T20:12:01.105Z,2.40
2018-01-21T20:14:28.586Z,2.40
2018-01-21T20:16:56.018Z,2.40
2018-01-21T20:19:23.462Z,2.40
2018-01-21T20:21:51.001Z,2.40
2018-01-21T20:24:18.830Z,2.40
2018-01-21T20:26:46.193Z,2.40
2018-01-21T20:29:13.614Z,2.40
2018-01-21T20:31:41.041Z,2.40
2018-01-21T20:34:08.461Z,2.40
2018-01-21T20:36:36.062Z,2.50
2018-01-21T20:39:03.498Z,2.50
2018-01-21T20:41:30.973Z,2.40
2018-01-21T20:43:58.401Z,2.40
2018-01-21T20:46:25.884Z,2.50
2018-01-21T20:48:53.310Z,2.50
2018-01-21T20:51:26.286Z,2.50
2018-01-21T20:53:59.381Z,2.50
2018-01-21T20:56:26.985Z,2.50
2018-01-21T20:58:54.450Z,2.50
2018-01-21T21:01:21.937Z,2.50
2018-01-21T21:03:49.361Z,2.50
2018-01-21T21:06:16.926Z,2.40
2018-01-21T21:08:44.346Z,2.60
2018-01-21T21:11:11.837Z,2.60
2018-01-21T21:13:39.258Z,2.50
2018-01-21T21:16:06.752Z,2.50
2018-01-21T21:18:34.513Z,2.60
2018-01-21T21:21:02.163Z,2.50
2018-01-21T21:23:29.638Z,2.50
2018-01-21T21:25:57.111Z,2.50
2018-01-21T21:28:24.553Z,2.50
2018-01-21T21:30:52.021Z,2.70
2018-01-21T21:33:19.469Z,2.60
2018-01-21T21:35:47.031Z,2.50
2018-01-21T21:38:14.558Z,2.60
2018-01-21T21:40:41.993Z,2.50
2018-01-21T21:43:09.715Z,2.50
2018-01-21T21:45:37.165Z,2.50
2018-01-21T21:48:04.597Z,2.50
2018-01-21T21:50:32.081Z,2.50
2018-01-21T21:52:59.506Z,2.50
2018-01-21T21:55:26.930Z,2.50
2018-01-21T21:57:54.358Z,2.50
2018-01-21T22:00:21.914Z,2.50
2018-01-21T22:02:49.369Z,2.50
2018-01-21T22:05:17.134Z,2.50
2018-01-21T22:07:44.772Z,2.50
2018-01-21T22:10:12.366Z,2.50
2018-01-21T22:12:39.810Z,2.40
2018-01-21T22:15:07.237Z,2.50
2018-01-21T22:17:34.657Z,2.50
2018-01-21T22:20:02.966Z,2.40
2018-01-21T22:22:31.181Z,2.60
2018-01-21T22:24:58.834Z,2.50
2018-01-21T22:27:26.237Z,2.50
2018-01-21T22:29:53.762Z,2.40
2018-01-21T22:32:21.303Z,2.50
2018-01-21T22:34:48.782Z,2.50
2018-01-21T22:37:16.409Z,2.60
2018-01-21T22:39:44.789Z,2.70
2018-01-21T22:42:12.381Z,2.60
2018-01-21T22:44:40.150Z,2.70
2018-01-21T22:47:07.769Z,2.60
2018-01-21T22:49:35.985Z,2.60
2018-01-21T22:52:03.612Z,2.60
2018-01-21T22:54:31.205Z,2.60
2018-01-21T22:56:58.665Z,2.80
2018-01-21T22:59:26.281Z,2.70
2018-01-21T23:01:54.591Z,2.80
2018-01-21T23:04:22.237Z,2.70
2018-01-21T23:06:49.680Z,2.80
2018-01-21T23:09:17.098Z,2.80
2018-01-21T23:11:44.618Z,2.80
2018-01-21T23:14:12.037Z,2.80
2018-01-21T23:16:40.385Z,2.80
2018-01-21T23:19:07.835Z,2.80
2018-01-21T23:21:35.270Z,2.90
2018-01-21T23:24:02.850Z,2.90
2018-01-21T23:26:30.281Z,2.80
2018-01-21T23:28:57.771Z,2.80
2018-01-21T23:31:25.207Z,2.70
2018-01-21T23:33:52.685Z,2.80
2018-01-21T23:36:20.328Z,2.70
2018-01-21T23:38:47.902Z,2.60
2018-01-21T23:41:15.325Z,2.60
2018-01-21T23:43:42.818Z,2.40
2018-01-21T23:46:10.281Z,2.40
2018-01-21T23:48:37.737Z,2.40
2018-01-21T23:51:05.162Z,2.30
2018-01-21T23:53:32.658Z,2.30
2018-01-21T23:56:00.110Z,2.20
2018-01-21T23:58:27.565Z,2.20
